Time;durP1;ratioP1;P1;durP2;ratioP2;P2;SDS_P1;SDS_P2;PMS_P1;PMS_P2;Temp;Humidity;BMP_temperature;BMP_pressure;BME280_temperature;BME280_humidity;BME280_pressure;Samples;Min_cycle;Max_cycle;Signal;HPM_P1;HPM_P2
2024/04/11 00:00:55;;;;;;;4.18;1.33;;;;;;;12.42;100.00;101961.50;5514389;26;20006;-73
2024/04/11 00:03:20;;;;;;;3.05;1.10;;;;;;;12.40;100.00;101950.63;5401091;26;20648;-74
2024/04/11 00:05:46;;;;;;;6.15;2.22;;;;;;;12.42;100.00;101944.78;5430417;26;20051;-74
2024/04/11 00:08:11;;;;;;;2.55;1.45;;;;;;;12.39;100.00;101943.38;5460354;26;20363;-74
2024/04/11 00:10:37;;;;;;;4.32;1.67;;;;;;;12.40;100.00;101952.59;5491369;26;20114;-74
2024/04/11 00:13:02;;;;;;;3.92;1.52;;;;;;;12.40;100.00;101955.38;5448841;26;20013;-74
2024/04/11 00:15:28;;;;;;;4.95;1.60;;;;;;;12.39;100.00;101964.81;5460976;26;20002;-74
2024/04/11 00:17:53;;;;;;;5.28;1.90;;;;;;;12.40;100.00;101963.72;5430130;26;20002;-74
2024/04/11 00:20:20;;;;;;;2.20;1.30;;;;;;;12.37;100.00;101947.53;5430677;26;20016;-74
2024/04/11 00:22:46;;;;;;;3.47;1.65;;;;;;;12.40;100.00;101944.22;5455643;26;20452;-74
2024/04/11 00:25:13;;;;;;;4.80;1.67;;;;;;;12.38;100.00;101949.22;5430749;26;20038;-74
2024/04/11 00:27:38;;;;;;;5.05;1.98;;;;;;;12.35;100.00;101950.59;5436604;26;20021;-74
2024/04/11 00:30:04;;;;;;;3.95;1.60;;;;;;;12.36;100.00;101962.59;5430625;26;20462;-74
2024/04/11 00:32:30;;;;;;;3.58;1.63;;;;;;;12.35;100.00;101955.34;5460080;26;20438;-74
2024/04/11 00:34:55;;;;;;;6.43;1.92;;;;;;;12.36;100.00;101949.47;5490498;26;20017;-74
2024/04/11 00:37:25;;;;;;;4.60;1.67;;;;;;;12.34;100.00;101948.06;5460260;26;20006;-74
2024/04/11 00:39:50;;;;;;;5.75;1.67;;;;;;;12.35;100.00;101946.97;5461207;26;20089;-74
2024/04/11 00:42:17;;;;;;;3.80;1.65;;;;;;;12.34;100.00;101939.72;5496456;26;20013;-74
2024/04/11 00:44:43;;;;;;;6.07;1.80;;;;;;;12.34;100.00;101937.78;5460721;26;20055;-74
2024/04/11 00:47:09;;;;;;;3.00;1.65;;;;;;;12.35;100.00;101924.69;5430304;26;20012;-74
2024/04/11 00:49:38;;;;;;;3.75;1.52;;;;;;;12.33;100.00;101929.69;5430659;26;20006;-74
2024/04/11 00:52:04;;;;;;;5.05;2.00;;;;;;;12.34;100.00;101929.44;5459721;26;20576;-74
2024/04/11 00:54:29;;;;;;;4.85;1.85;;;;;;;12.33;100.00;101924.94;5460269;26;20009;-74
2024/04/11 00:56:59;;;;;;;5.97;2.17;;;;;;;12.33;100.00;101919.38;5403076;26;20018;-74
2024/04/11 00:59:24;;;;;;;4.35;1.98;;;;;;;12.32;100.00;101916.88;5460783;26;20021;-74
2024/04/11 01:01:49;;;;;;;5.70;1.83;;;;;;;12.33;100.00;101918.56;5459811;26;20010;-74
2024/04/11 01:04:15;;;;;;;7.85;2.10;;;;;;;12.33;100.00;101918.56;5394217;26;20011;-74
2024/04/11 01:07:06;;;;;;;6.82;2.30;;;;;;;12.30;100.00;101920.75;5450012;26;20145;-74
2024/04/11 01:09:33;;;;;;;6.88;2.10;;;;;;;12.30;100.00;101923.53;5437989;26;20354;-74
2024/04/11 01:11:59;;;;;;;8.15;2.63;;;;;;;12.32;100.00;101928.03;5487664;26;20021;-74
2024/04/11 01:14:24;;;;;;;5.55;1.90;;;;;;;12.30;100.00;101937.47;5429649;26;20467;-74
2024/04/11 01:16:50;;;;;;;6.47;2.20;;;;;;;12.32;100.00;101923.28;5429592;26;20033;-74
2024/04/11 01:19:16;;;;;;;9.35;2.60;;;;;;;12.33;100.00;101932.47;5465959;26;20020;-74
2024/04/11 01:21:42;;;;;;;7.05;2.28;;;;;;;12.34;100.00;101929.44;5459258;26;20070;-74
2024/04/11 01:24:08;;;;;;;5.60;2.10;;;;;;;12.30;100.00;101947.78;5430135;26;20010;-74
2024/04/11 01:26:36;;;;;;;7.72;2.00;;;;;;;12.29;100.00;101944.16;5459662;26;20089;-74
2024/04/11 01:29:02;;;;;;;6.22;2.10;;;;;;;12.32;100.00;101941.97;5459537;26;20010;-74
2024/04/11 01:31:30;;;;;;;9.27;2.60;;;;;;;12.32;100.00;101942.78;5429217;26;20447;-74
2024/04/11 01:33:55;;;;;;;8.63;2.50;;;;;;;12.32;100.00;101944.75;5459802;26;20019;-74
2024/04/11 01:36:21;;;;;;;8.80;1.90;;;;;;;12.28;100.00;101942.47;5428872;26;20002;-74
2024/04/11 01:38:46;;;;;;;9.27;2.40;;;;;;;12.32;100.00;101940.00;5459425;26;20006;-74
2024/04/11 01:41:12;;;;;;;8.77;2.85;;;;;;;12.29;100.00;101938.59;5459400;26;20013;-74
2024/04/11 01:43:38;;;;;;;8.23;2.78;;;;;;;12.30;100.00;101931.91;5459366;26;20053;-74
2024/04/11 01:46:04;;;;;;;8.38;2.53;;;;;;;12.32;100.00;101934.44;5429280;26;20140;-74
2024/04/11 01:48:29;;;;;;;6.95;2.20;;;;;;;12.31;100.00;101941.09;5429247;26;20082;-74
2024/04/11 01:50:55;;;;;;;9.95;2.65;;;;;;;12.29;100.00;101946.13;5429344;26;20399;-74
2024/04/11 01:53:21;;;;;;;9.07;2.55;;;;;;;12.30;100.00;101948.63;5459626;26;20446;-74
2024/04/11 01:55:47;;;;;;;6.57;2.55;;;;;;;12.29;100.00;101952.53;5459147;26;20384;-74
2024/04/11 01:58:16;;;;;;;10.20;2.78;;;;;;;12.29;100.00;101952.53;5401155;26;20443;-74
2024/04/11 02:00:43;;;;;;;7.38;2.47;;;;;;;12.29;100.00;101952.53;5459890;26;20020;-74
2024/04/11 02:03:09;;;;;;;7.85;3.00;;;;;;;12.30;100.00;101939.44;5400005;26;20564;-74
2024/04/11 02:05:35;;;;;;;8.52;2.92;;;;;;;12.28;100.00;101939.69;5458674;26;20029;-74
2024/04/11 02:08:01;;;;;;;13.32;3.47;;;;;;;12.29;100.00;101955.31;5399283;26;20002;-74
2024/04/11 02:10:28;;;;;;;9.85;2.72;;;;;;;12.28;100.00;101945.25;5459152;26;20462;-74
2024/04/11 02:12:53;;;;;;;10.77;3.30;;;;;;;12.28;100.00;101950.81;5458153;26;20006;-74
2024/04/11 02:15:19;;;;;;;9.20;2.85;;;;;;;12.27;100.00;101943.59;5459648;26;20427;-74
2024/04/11 02:17:44;;;;;;;8.63;3.05;;;;;;;12.28;100.00;101950.81;5416330;26;20021;-74
2024/04/11 02:20:13;;;;;;;8.18;3.00;;;;;;;12.27;100.00;101942.75;5487274;26;20010;-74
2024/04/11 02:22:38;;;;;;;11.90;3.50;;;;;;;12.26;100.00;101946.66;5432029;26;20076;-74
2024/04/11 02:25:04;;;;;;;7.97;2.42;;;;;;;12.25;100.00;101951.38;5451535;26;20002;-74
2024/04/11 02:27:30;;;;;;;12.27;2.90;;;;;;;12.26;100.00;101947.50;5408754;26;19999;-74
2024/04/11 02:29:55;;;;;;;10.10;3.13;;;;;;;12.25;100.00;101942.19;5437503;26;20007;-74
2024/04/11 02:32:21;;;;;;;6.40;2.60;;;;;;;12.28;100.00;101936.06;5438146;26;20001;-74
2024/04/11 02:34:47;;;;;;;9.73;2.80;;;;;;;12.27;100.00;101939.97;5463100;26;20002;-74
2024/04/11 02:37:14;;;;;;;7.45;2.58;;;;;;;12.26;100.00;101932.75;5474587;26;20001;-74
2024/04/11 02:39:39;;;;;;;8.88;2.55;;;;;;;12.26;100.00;101930.78;5475977;26;20695;-74
2024/04/11 02:42:05;;;;;;;9.45;2.92;;;;;;;12.25;100.00;101928.25;5508873;25;20001;-74
2024/04/11 02:44:33;;;;;;;9.48;2.63;;;;;;;12.27;100.00;101931.63;5478912;26;20446;-74
2024/04/11 02:47:01;;;;;;;8.57;2.70;;;;;;;12.24;100.00;101919.06;5479975;26;20102;-74
2024/04/11 02:49:27;;;;;;;10.95;3.03;;;;;;;12.24;100.00;101921.84;5507165;26;20017;-74
2024/04/11 02:51:53;;;;;;;15.85;3.50;;;;;;;12.24;100.00;101909.88;5500178;26;20018;-74
2024/04/11 02:54:19;;;;;;;9.20;2.78;;;;;;;12.24;100.00;101904.31;5477468;26;20069;-74
2024/04/11 02:56:45;;;;;;;10.40;3.03;;;;;;;12.24;100.00;101899.56;5472081;26;20001;-74
2024/04/11 02:59:11;;;;;;;10.10;2.83;;;;;;;12.24;100.00;101898.75;5471254;26;20024;-74
2024/04/11 03:01:41;;;;;;;11.02;3.00;;;;;;;12.23;100.00;101897.03;5473865;26;19998;-74
2024/04/11 03:04:08;;;;;;;7.85;2.90;;;;;;;12.23;100.00;101908.19;5474754;26;19999;-74
2024/04/11 03:06:33;;;;;;;9.25;2.72;;;;;;;12.22;100.00;101912.09;5471031;26;20010;-74
2024/04/11 03:09:00;;;;;;;12.90;3.70;;;;;;;12.22;100.00;101923.22;5496760;26;20002;-74
2024/04/11 03:11:26;;;;;;;8.95;2.38;;;;;;;12.22;100.00;101924.06;5507927;26;20009;-74
2024/04/11 03:13:58;;;;;;;9.50;2.97;;;;;;;12.21;100.00;101919.63;5478157;26;20406;-74
2024/04/11 03:16:24;;;;;;;10.40;2.83;;;;;;;12.22;100.00;101912.91;5470179;26;20010;-74
2024/04/11 03:18:51;;;;;;;10.88;2.95;;;;;;;12.24;100.00;101916.28;5433063;26;20483;-74
2024/04/11 03:21:17;;;;;;;9.20;2.72;;;;;;;12.23;100.00;101931.31;5478807;26;19997;-74
2024/04/11 03:23:42;;;;;;;9.68;3.10;;;;;;;12.20;100.00;101928.22;5473750;26;20012;-74
2024/04/11 03:26:08;;;;;;;9.10;2.38;;;;;;;12.22;100.00;101928.81;5461718;26;20633;-74
2024/04/11 03:28:33;;;;;;;10.15;2.72;;;;;;;12.20;100.00;101943.00;5438068;26;20042;-74
2024/04/11 03:31:08;;;;;;;8.52;2.80;;;;;;;12.21;100.00;101950.25;5431005;26;20030;-74
2024/04/11 03:33:34;;;;;;;11.88;3.40;;;;;;;12.19;100.00;101952.47;5468307;26;20006;-74
2024/04/11 03:36:05;;;;;;;10.43;2.92;;;;;;;12.18;100.00;101956.38;5426838;26;20083;-74
2024/04/11 03:38:31;;;;;;;7.35;2.35;;;;;;;12.18;100.00;101961.94;5468093;26;20016;-74
2024/04/11 03:41:07;;;;;;;12.65;2.92;;;;;;;12.16;100.00;101958.56;5466192;26;20006;-74
2024/04/11 03:43:37;;;;;;;9.77;2.70;;;;;;;12.20;100.00;101953.28;5462736;26;20010;-74
2024/04/11 03:46:24;;;;;;;9.07;2.47;;;;;;;12.18;100.00;101959.16;5461773;26;20463;-74
2024/04/11 03:48:58;;;;;;;9.32;3.10;;;;;;;12.18;100.00;101961.94;5462916;26;20021;-74
2024/04/11 03:51:30;;;;;;;7.30;3.13;;;;;;;12.19;100.00;101965.56;5433006;26;20022;-74
2024/04/11 03:53:56;;;;;;;11.75;2.22;;;;;;;12.19;100.00;101958.03;5459363;26;20050;-74
2024/04/11 03:56:23;;;;;;;10.25;2.92;;;;;;;12.19;100.00;101955.25;5441321;26;20826;-74
2024/04/11 03:58:51;;;;;;;10.07;2.42;;;;;;;12.17;100.00;101954.66;5500802;25;20006;-74
2024/04/11 04:01:18;;;;;;;8.30;2.88;;;;;;;12.17;100.00;101964.97;5471477;26;20085;-74
2024/04/11 04:03:44;;;;;;;11.93;2.33;;;;;;;12.14;100.00;101966.34;5464995;26;20016;-74
2024/04/11 04:06:12;;;;;;;6.25;2.60;;;;;;;12.15;100.00;101984.75;5416679;26;20034;-74
2024/04/11 04:08:38;;;;;;;6.13;2.10;;;;;;;12.14;100.00;101988.63;5416547;26;20002;-74
2024/04/11 04:11:05;;;;;;;9.75;2.25;;;;;;;12.15;100.00;101993.09;5477483;26;20002;-74
2024/04/11 04:13:31;;;;;;;10.43;2.55;;;;;;;12.16;100.00;101992.00;5479283;26;20624;-74
2024/04/11 04:15:57;;;;;;;11.50;2.85;;;;;;;12.16;100.00;101991.16;5476001;26;20056;-74
2024/04/11 04:18:23;;;;;;;7.60;2.10;;;;;;;12.14;100.00;101983.06;5415892;26;20020;-74
2024/04/11 04:20:56;;;;;;;10.10;2.47;;;;;;;12.14;100.00;101983.06;5476331;26;20014;-74
2024/04/11 04:23:21;;;;;;;;;;;;;;;12.13;100.00;101981.41;5414841;26;20016;-74
2024/04/11 04:25:54;;;;;;;7.88;2.50;;;;;;;12.13;100.00;101975.81;5564800;25;19931;-74
2024/04/11 04:28:19;;;;;;;8.82;2.58;;;;;;;12.12;100.00;101968.59;5469663;26;20003;-74
2024/04/11 04:30:45;;;;;;;6.40;2.10;;;;;;;12.12;100.00;101960.22;5468956;26;20021;-74
2024/04/11 04:33:11;;;;;;;9.55;2.40;;;;;;;12.10;100.00;101962.44;5466186;26;20445;-74
2024/04/11 04:35:36;;;;;;;10.38;2.25;;;;;;;12.09;100.00;101958.00;5480206;26;20361;-74
2024/04/11 04:38:02;;;;;;;7.80;2.17;;;;;;;12.09;100.00;101946.84;5493154;26;20006;-74
2024/04/11 04:40:27;;;;;;;7.93;1.90;;;;;;;12.07;100.00;101949.88;5446038;26;20013;-74
2024/04/11 04:42:53;;;;;;;7.93;2.47;;;;;;;12.07;100.00;101960.19;5471322;26;20005;-74
2024/04/11 04:45:19;;;;;;;9.25;2.72;;;;;;;12.06;100.00;101948.22;5500915;26;20009;-74
2024/04/11 04:47:47;;;;;;;13.77;2.45;;;;;;;12.04;100.00;101956.00;5469058;26;20009;-74
2024/04/11 04:50:13;;;;;;;8.30;2.05;;;;;;;12.04;100.00;101967.13;5473978;26;20427;-74
2024/04/11 04:52:38;;;;;;;9.25;2.33;;;;;;;12.02;100.00;101968.50;5466965;26;20021;-74
2024/04/11 04:55:04;;;;;;;6.70;1.85;;;;;;;12.02;100.00;101969.34;5503087;26;20023;-74
2024/04/11 04:57:31;;;;;;;10.77;2.58;;;;;;;11.98;100.00;101961.78;5489644;26;19999;-74
2024/04/11 04:59:57;;;;;;;11.10;2.58;;;;;;;11.98;100.00;101964.56;5450757;26;20021;-74
2024/04/11 05:02:26;;;;;;;12.82;2.50;;;;;;;11.95;100.00;101968.75;5438429;26;20006;-74
2024/04/11 05:04:51;;;;;;;8.18;2.20;;;;;;;11.98;100.00;101967.34;5452171;26;20006;-74
2024/04/11 05:07:20;;;;;;;12.73;3.22;;;;;;;11.95;100.00;101965.97;5427705;26;20087;-74
2024/04/11 05:09:46;;;;;;;10.15;2.60;;;;;;;11.94;100.00;101971.78;5454920;26;20006;-74
2024/04/11 05:12:11;;;;;;;12.98;3.00;;;;;;;11.91;100.00;101970.38;5459683;26;20021;-74
2024/04/11 05:14:38;;;;;;;11.18;2.35;;;;;;;11.91;100.00;101984.31;5386336;26;20007;-74
2024/04/11 05:17:08;;;;;;;13.50;3.10;;;;;;;11.92;100.00;101994.31;5436741;26;20793;-74
2024/04/11 05:19:36;;;;;;;15.65;2.80;;;;;;;11.89;100.00;101992.06;5489500;26;20002;-74
2024/04/11 05:22:04;;;;;;;8.75;2.08;;;;;;;11.87;100.00;101999.00;5430565;26;20020;-74
2024/04/11 05:24:30;;;;;;;16.27;2.75;;;;;;;11.88;100.00;101990.41;5458724;26;20015;-74
2024/04/11 05:26:55;;;;;;;14.43;2.90;;;;;;;11.88;100.00;102000.72;5459888;26;20168;-74
2024/04/11 05:29:21;;;;;;;15.32;3.08;;;;;;;11.85;100.00;101999.25;5400020;26;20024;-74
2024/04/11 05:31:46;;;;;;;10.77;2.47;;;;;;;11.84;100.00;102000.38;5489493;26;20006;-74
2024/04/11 05:34:16;;;;;;;15.07;3.42;;;;;;;11.83;100.00;102010.66;5491401;26;20021;-74
2024/04/11 05:36:44;;;;;;;15.15;3.10;;;;;;;11.79;100.00;102009.53;5489638;26;20010;-74
2024/04/11 05:39:10;;;;;;;14.02;2.67;;;;;;;11.78;100.00;102013.41;5406602;26;20001;-74
2024/04/11 05:41:36;;;;;;;17.10;3.97;;;;;;;11.79;100.00;102009.53;5459532;26;20006;-74
2024/04/11 05:44:01;;;;;;;9.95;2.25;;;;;;;11.77;100.00;102016.44;5459326;26;20003;-74
2024/04/11 05:46:30;;;;;;;18.70;3.15;;;;;;;11.76;100.00;102028.69;5399650;26;20012;-74
2024/04/11 05:48:55;;;;;;;11.77;2.63;;;;;;;11.73;100.00;102030.06;5430721;26;20016;-74
2024/04/11 05:51:22;;;;;;;15.07;3.08;;;;;;;11.74;100.00;102017.81;5459119;26;20006;-74
2024/04/11 05:53:47;;;;;;;9.63;2.35;;;;;;;11.75;100.00;102033.41;5459248;26;20013;-74
2024/04/11 05:56:14;;;;;;;12.98;2.75;;;;;;;11.73;100.00;102035.63;5430014;26;20013;-74
2024/04/11 05:58:40;;;;;;;14.63;2.67;;;;;;;11.74;100.00;102045.66;5425179;26;20013;-74
2024/04/11 06:01:06;;;;;;;10.75;2.80;;;;;;;11.74;100.00;102033.69;5459228;26;20346;-74
2024/04/11 06:03:40;;;;;;;17.83;2.78;;;;;;;11.75;100.00;102036.19;5460209;26;20052;-74
2024/04/11 06:06:13;;;;;;;23.35;2.92;;;;;;;11.76;100.00;102035.09;5509182;25;20010;-74
2024/04/11 06:08:38;;;;;;;;;;;;;;;11.75;100.00;102033.41;5460555;26;20078;-73
2024/04/11 06:11:06;;;;;;;17.95;3.13;;;;;;;11.76;100.00;102032.31;5459232;26;19932;-73
2024/04/11 06:13:31;;;;;;;11.88;2.72;;;;;;;11.79;100.00;102047.66;5459518;26;20071;-74
2024/04/11 06:15:59;;;;;;;18.13;2.80;;;;;;;11.81;100.00;102051.84;5398829;26;20010;-73
2024/04/11 06:18:28;;;;;;;18.15;3.40;;;;;;;11.84;100.00;102051.31;5459408;26;20471;-73
2024/04/11 06:20:55;;;;;;;15.10;2.88;;;;;;;11.89;100.00;102044.97;5430041;26;19998;-74
2024/04/11 06:23:21;;;;;;;15.57;2.80;;;;;;;11.91;100.00;102037.19;5399035;26;20002;-78
2024/04/11 06:25:47;;;;;;;18.80;3.65;;;;;;;11.97;100.00;102057.56;5458500;26;20006;-73
2024/04/11 06:28:15;;;;;;;16.33;2.80;;;;;;;12.04;100.00;102052.63;5428518;26;20013;-73
2024/04/11 06:30:41;;;;;;;15.38;3.13;;;;;;;12.08;100.00;102051.81;5429314;26;20010;-73
2024/04/11 06:33:11;;;;;;;18.42;3.00;;;;;;;12.14;100.00;102055.47;5428130;26;20006;-73
2024/04/11 06:35:36;;;;;;;16.98;3.20;;;;;;;12.19;100.00;102038.81;5430277;26;20021;-73
2024/04/11 06:38:05;;;;;;;17.63;3.47;;;;;;;12.24;100.00;102047.19;5458124;26;20010;-73
2024/04/11 06:40:32;;;;;;;21.83;3.15;;;;;;;12.31;100.00;102049.75;5459112;26;20527;-73
2024/04/11 06:42:59;;;;;;;19.85;3.28;;;;;;;12.37;100.00;102039.47;5459137;26;20014;-73
2024/04/11 06:45:24;;;;;;;23.67;3.25;;;;;;;12.41;100.00;102040.63;5458027;26;20354;-73
2024/04/11 06:47:50;;;;;;;16.95;3.83;;;;;;;12.46;100.00;102041.50;5392479;26;20010;-73
2024/04/11 06:50:16;;;;;;;19.40;3.55;;;;;;;12.52;100.00;102045.16;5447589;26;20081;-73
2024/04/11 06:52:45;;;;;;;14.23;2.78;;;;;;;12.55;100.00;102049.34;5428160;26;20042;-73
2024/04/11 06:55:14;;;;;;;17.05;4.53;;;;;;;12.61;100.00;102049.09;5488339;26;20022;-73
2024/04/11 06:57:43;;;;;;;16.67;3.03;;;;;;;12.68;100.00;102048.88;5452527;26;20347;-73
2024/04/11 07:00:12;;;;;;;15.63;3.63;;;;;;;12.70;100.00;102044.69;5443589;26;20347;-73
2024/04/11 07:02:44;;;;;;;17.02;3.97;;;;;;;12.77;100.00;102046.41;5400143;26;20006;-73
2024/04/11 07:05:13;;;;;;;20.27;4.13;;;;;;;12.80;100.00;102057.00;5400906;26;20014;-73
2024/04/11 07:07:41;;;;;;;20.13;3.85;;;;;;;12.87;100.00;102060.38;5422568;26;20019;-73
2024/04/11 07:10:15;;;;;;;19.92;3.50;;;;;;;12.90;100.00;102051.47;5482266;26;20022;-73
2024/04/11 07:12:46;;;;;;;19.38;3.85;;;;;;;12.97;100.00;102046.47;5431946;26;20013;-73
2024/04/11 07:15:18;;;;;;;19.33;4.15;;;;;;;13.04;100.00;102041.50;5429314;26;20026;-73
2024/04/11 07:17:56;;;;;;;23.33;4.40;;;;;;;13.11;100.00;102044.84;5431881;26;20018;-73
2024/04/11 07:20:25;;;;;;;19.08;3.40;;;;;;;13.17;100.00;102031.75;5466346;26;20006;-73
2024/04/11 07:22:54;;;;;;;23.17;3.60;;;;;;;13.23;100.00;102038.19;5488038;26;20013;-73
2024/04/11 07:25:20;;;;;;;15.75;3.63;;;;;;;13.31;100.00;102034.91;5457975;26;20018;-73
2024/04/11 07:27:48;;;;;;;20.83;3.95;;;;;;;13.39;100.00;102031.56;5398529;26;20014;-73
2024/04/11 07:30:14;;;;;;;19.52;3.53;;;;;;;13.46;100.00;102029.34;5461872;26;20010;-73
2024/04/11 07:32:40;;;;;;;14.98;2.80;;;;;;;13.56;100.00;102032.13;5442628;26;20002;-73
2024/04/11 07:35:06;;;;;;;15.52;3.60;;;;;;;13.69;100.00;102035.53;5460625;26;19998;-73
2024/04/11 07:37:32;;;;;;;23.25;3.88;;;;;;;13.83;100.00;102036.66;5491204;26;20002;-73
2024/04/11 07:40:00;;;;;;;19.75;3.80;;;;;;;13.97;100.00;102045.31;5461498;26;20010;-73
2024/04/11 07:42:48;;;;;;;15.23;3.03;;;;;;;14.08;100.00;102047.81;5431449;26;20063;-73
2024/04/11 07:45:17;;;;;;;20.25;3.85;;;;;;;14.22;100.00;102053.66;5441186;26;20082;-73
2024/04/11 07:47:43;;;;;;;21.38;4.15;;;;;;;14.35;100.00;102049.47;5456389;26;20006;-73
2024/04/11 07:50:11;;;;;;;20.40;4.15;;;;;;;14.47;100.00;102058.38;5416982;26;20462;-73
2024/04/11 07:52:37;;;;;;;21.98;3.85;;;;;;;14.57;100.00;102076.25;5432038;26;20021;-73
2024/04/11 07:55:04;;;;;;;18.50;3.47;;;;;;;14.66;100.00;102078.22;5432012;26;20022;-73
2024/04/11 07:57:30;;;;;;;19.13;4.32;;;;;;;14.77;100.00;102069.81;5455406;26;20002;-73
2024/04/11 08:00:00;;;;;;;21.73;3.25;;;;;;;14.89;100.00;102067.50;5477880;26;20006;-73
2024/04/11 08:02:26;;;;;;;15.93;3.42;;;;;;;15.04;100.00;102067.44;5461716;26;20002;-73
2024/04/11 08:04:52;;;;;;;21.48;3.95;;;;;;;15.22;100.00;102084.72;5430897;26;20002;-73
2024/04/11 08:07:17;;;;;;;17.10;4.07;;;;;;;15.42;100.00;102101.41;5430621;26;20012;-73
2024/04/11 08:09:55;;;;;;;16.20;4.00;;;;;;;15.61;100.00;102096.81;5460680;26;20014;-73
2024/04/11 08:12:21;;;;;;;20.45;4.50;;;;;;;15.80;100.00;102108.22;5464400;26;20010;-74
2024/04/11 08:14:47;;;;;;;17.38;3.33;;;;;;;15.96;100.00;102114.53;5491027;26;20006;-73
2024/04/11 08:17:13;;;;;;;19.45;3.60;;;;;;;16.08;100.00;102100.16;5431014;26;20030;-73
2024/04/11 08:19:39;;;;;;;23.85;3.97;;;;;;;16.21;100.00;102088.25;5490413;26;20014;-73
2024/04/11 08:22:05;;;;;;;14.75;3.55;;;;;;;16.33;100.00;102103.88;5460483;26;20010;-73
2024/04/11 08:24:31;;;;;;;22.08;3.78;;;;;;;16.40;100.00;102116.41;5460893;26;20454;-73
2024/04/11 08:26:56;;;;;;;22.48;4.03;;;;;;;16.45;100.00;102121.97;5454243;26;20459;-73
2024/04/11 08:29:23;;;;;;;18.80;3.88;;;;;;;16.52;100.00;102114.06;5451275;26;20020;-73
2024/04/11 08:31:49;;;;;;;19.90;3.38;;;;;;;16.58;100.00;102108.41;5496245;26;20001;-73
2024/04/11 08:34:14;;;;;;;21.48;3.20;;;;;;;16.64;100.00;102099.63;5439510;26;20065;-73
2024/04/11 08:36:40;;;;;;;18.88;2.85;;;;;;;16.68;100.00;102100.69;5470243;26;20002;-73
2024/04/11 08:39:09;;;;;;;19.63;3.42;;;;;;;16.71;100.00;102100.09;5443803;26;20350;-73
2024/04/11 08:41:34;;;;;;;18.85;3.70;;;;;;;16.74;100.00;102132.34;5445087;26;20062;-73
2024/04/11 08:44:00;;;;;;;16.15;3.08;;;;;;;16.80;100.00;102141.56;5407633;26;20826;-73
2024/04/11 08:46:29;;;;;;;15.48;3.63;;;;;;;16.85;100.00;102119.06;5442854;26;20073;-73
2024/04/11 08:48:54;;;;;;;21.30;3.47;;;;;;;16.92;100.00;102116.75;5434948;26;20031;-74
2024/04/11 08:51:21;;;;;;;17.83;3.65;;;;;;;17.00;100.00;102115.28;5467734;26;20014;-73
2024/04/11 08:53:47;;;;;;;15.65;3.30;;;;;;;17.08;100.00;102109.84;5438424;26;20107;-73
2024/04/11 08:56:13;;;;;;;18.42;3.10;;;;;;;17.14;100.00;102105.81;5498891;26;20526;-73
2024/04/11 08:58:39;;;;;;;18.23;4.03;;;;;;;17.24;100.00;102099.22;5470053;26;20002;-73
2024/04/11 09:01:06;;;;;;;21.15;4.10;;;;;;;17.33;100.00;102093.81;5461108;26;20027;-73
2024/04/11 09:03:32;;;;;;;21.70;4.10;;;;;;;17.46;100.00;102101.47;5469616;26;20078;-73
2024/04/11 09:05:58;;;;;;;19.80;3.45;;;;;;;17.56;100.00;102104.13;5413926;26;20005;-73
2024/04/11 09:08:25;;;;;;;13.98;3.25;;;;;;;17.69;100.00;102104.50;5433536;26;20670;-73
2024/04/11 09:10:54;;;;;;;13.73;3.60;;;;;;;17.84;100.00;102122.00;5476210;26;20016;-73
2024/04/11 09:13:22;;;;;;;15.27;3.10;;;;;;;18.00;100.00;102124.59;5495264;26;20006;-74
2024/04/11 09:15:59;;;;;;;15.65;3.15;;;;;;;18.18;100.00;102114.47;5500907;26;20006;-73
2024/04/11 09:18:27;;;;;;;14.90;2.88;;;;;;;18.30;100.00;102120.41;5499695;26;20021;-73
2024/04/11 09:21:04;;;;;;;17.70;3.38;;;;;;;18.43;100.00;102119.63;5441070;26;20801;-73
2024/04/11 09:23:46;;;;;;;21.75;3.28;;;;;;;18.57;100.00;102121.66;5463753;26;20006;-73
2024/04/11 09:26:13;;;;;;;14.80;3.10;;;;;;;18.69;100.00;102114.41;5430161;26;20018;-73
2024/04/11 09:28:38;;;;;;;19.85;3.30;;;;;;;18.81;100.00;102116.72;5430068;26;20110;-73
2024/04/11 09:31:04;;;;;;;14.77;2.95;;;;;;;18.89;100.00;102121.63;5427490;26;20490;-73
2024/04/11 09:33:31;;;;;;;17.73;3.50;;;;;;;19.00;100.00;102121.41;5475516;26;20375;-74
2024/04/11 09:35:58;;;;;;;14.73;3.20;;;;;;;19.11;100.00;102131.31;5494768;26;20021;-74
2024/04/11 09:38:23;;;;;;;19.77;3.33;;;;;;;19.29;100.00;102140.81;5406268;26;20078;-73
2024/04/11 09:40:53;;;;;;;12.85;2.75;;;;;;;19.40;100.00;102140.28;5464548;26;20010;-73
2024/04/11 09:43:27;;;;;;;18.67;3.45;;;;;;;19.57;100.00;102144.44;5436732;26;20346;-73
2024/04/11 09:45:56;;;;;;;18.35;3.15;;;;;;;19.69;100.00;102150.38;5407861;26;20018;-73
2024/04/11 09:48:22;;;;;;;16.23;3.42;;;;;;;19.80;100.00;102149.00;5462724;26;20479;-74
2024/04/11 09:50:50;;;;;;;13.15;2.80;;;;;;;19.94;100.00;102145.31;5460973;26;20059;-74
2024/04/11 09:53:26;;;;;;;15.80;3.22;;;;;;;20.08;100.00;102140.47;5472747;26;20006;-73
2024/04/11 09:56:04;;;;;;;16.95;2.90;;;;;;;20.20;100.00;102132.28;5446496;26;20002;-73
2024/04/11 09:58:29;;;;;;;17.70;3.03;;;;;;;20.37;100.00;102127.91;5496468;26;20071;-73
2024/04/11 10:01:08;;;;;;;16.35;3.15;;;;;;;20.50;100.00;102119.38;5469064;26;20462;-73
2024/04/11 10:03:39;;;;;;;12.95;2.92;;;;;;;20.67;100.00;102121.50;5438133;26;20334;-73
2024/04/11 10:06:16;;;;;;;14.57;3.00;;;;;;;20.80;100.00;102102.78;5473062;26;20009;-73
2024/04/11 10:08:45;;;;;;;18.00;3.70;;;;;;;20.90;100.00;102102.50;5434048;26;20357;-73
2024/04/11 10:11:12;;;;;;;15.13;3.25;;;;;;;21.03;100.00;102112.00;5433926;26;20010;-73
2024/04/11 10:13:41;;;;;;;17.55;3.40;;;;;;;21.17;100.00;102111.88;5440794;26;20418;-73
2024/04/11 10:16:22;;;;;;;14.93;3.42;;;;;;;21.26;100.00;102114.75;5487933;25;20078;-73
2024/04/11 10:19:00;;;;;;;18.50;4.18;;;;;;;21.40;100.00;102113.50;5480393;26;20010;-74
2024/04/11 10:21:26;;;;;;;20.35;3.97;;;;;;;21.46;100.00;102119.00;5433893;26;20056;-73
2024/04/11 10:23:55;;;;;;;16.63;3.28;;;;;;;21.62;100.00;102118.19;5473794;26;20633;-73
2024/04/11 10:26:32;;;;;;;13.82;3.05;;;;;;;21.73;100.00;102115.88;5465138;26;20002;-73
2024/04/11 10:29:20;;;;;;;14.60;2.92;;;;;;;21.90;100.00;102108.53;5439520;26;20082;-73
2024/04/11 10:31:52;;;;;;;13.20;2.88;;;;;;;22.03;98.57;102116.03;5495888;26;20364;-74
2024/04/11 10:34:25;;;;;;;15.73;3.33;;;;;;;22.18;96.06;102120.41;5471937;26;20002;-73
2024/04/11 10:36:54;;;;;;;12.15;3.08;;;;;;;22.34;98.33;102127.16;5444771;26;20009;-74
2024/04/11 10:39:23;;;;;;;15.55;2.97;;;;;;;22.39;93.01;102121.34;5470197;26;20018;-74
2024/04/11 10:41:51;;;;;;;14.52;2.90;;;;;;;22.47;96.13;102131.81;5440032;26;20460;-73
2024/04/11 10:44:18;;;;;;;12.68;3.00;;;;;;;22.57;96.72;102118.50;5437204;26;20017;-73
2024/04/11 10:46:44;;;;;;;14.70;3.00;;;;;;;22.68;97.65;102125.47;5468413;26;20007;-74
2024/04/11 10:49:15;;;;;;;17.60;3.00;;;;;;;22.80;96.94;102119.91;5443266;26;20243;-73
2024/04/11 10:51:47;;;;;;;15.98;3.05;;;;;;;22.92;94.49;102120.00;5404379;26;20006;-73
2024/04/11 10:54:12;;;;;;;10.40;2.03;;;;;;;23.02;96.50;102120.84;5460837;26;20867;-74
2024/04/11 10:56:41;;;;;;;11.38;2.60;;;;;;;23.13;91.39;102124.97;5455789;26;20051;-74
2024/04/11 10:59:14;;;;;;;13.93;3.47;;;;;;;23.22;91.06;102134.25;5462111;26;20081;-73
2024/04/11 11:01:41;;;;;;;11.10;2.50;;;;;;;23.30;93.66;102130.53;5460360;26;20109;-74
2024/04/11 11:04:07;;;;;;;13.35;3.10;;;;;;;23.44;90.67;102129.47;5433764;26;20051;-74
2024/04/11 11:06:39;;;;;;;14.95;2.80;;;;;;;23.54;93.72;102124.22;5490817;26;20017;-74
2024/04/11 11:09:12;;;;;;;13.63;2.90;;;;;;;23.70;92.45;102132.94;5460466;26;20009;-74
2024/04/11 11:11:40;;;;;;;13.40;3.20;;;;;;;23.82;90.57;102124.56;5463661;26;20530;-74
2024/04/11 11:14:06;;;;;;;10.93;2.53;;;;;;;23.90;90.47;102116.31;5461954;26;20010;-74
2024/04/11 11:16:32;;;;;;;9.55;2.08;;;;;;;24.01;87.64;102118.38;5432064;26;20006;-74